sensor_id;sensor_type;location;lat;lon;timestamp;P1;durP1;ratioP1;P2;durP2;ratioP2
22490;SDS011;11412;50.802;4.350;2023-05-07T00:01:45;6.07;;;2.30;;
22490;SDS011;11412;50.802;4.350;2023-05-07T00:04:11;6.43;;;2.45;;
22490;SDS011;11412;50.802;4.350;2023-05-07T00:06:36;5.28;;;2.40;;
22490;SDS011;11412;50.802;4.350;2023-05-07T00:09:02;4.65;;;2.53;;
22490;SDS011;11412;50.802;4.350;2023-05-07T00:11:29;5.57;;;2.60;;
22490;SDS011;11412;50.802;4.350;2023-05-07T00:13:55;5.13;;;2.35;;
22490;SDS011;11412;50.802;4.350;2023-05-07T00:16:20;5.68;;;2.80;;
22490;SDS011;11412;50.802;4.350;2023-05-07T00:18:46;5.10;;;2.78;;
22490;SDS011;11412;50.802;4.350;2023-05-07T00:21:12;6.28;;;2.33;;
22490;SDS011;11412;50.802;4.350;2023-05-07T00:23:38;5.50;;;2.20;;
22490;SDS011;11412;50.802;4.350;2023-05-07T00:26:03;6.53;;;2.47;;
22490;SDS011;11412;50.802;4.350;2023-05-07T00:28:29;4.88;;;2.00;;
22490;SDS011;11412;50.802;4.350;2023-05-07T00:30:55;7.63;;;2.72;;
22490;SDS011;11412;50.802;4.350;2023-05-07T00:33:21;4.75;;;2.13;;
22490;SDS011;11412;50.802;4.350;2023-05-07T00:35:47;6.50;;;2.83;;
22490;SDS011;11412;50.802;4.350;2023-05-07T00:38:13;6.30;;;2.25;;
22490;SDS011;11412;50.802;4.350;2023-05-07T00:40:39;6.75;;;2.65;;
22490;SDS011;11412;50.802;4.350;2023-05-07T00:43:05;6.43;;;2.80;;
22490;SDS011;11412;50.802;4.350;2023-05-07T00:45:32;6.25;;;1.92;;
22490;SDS011;11412;50.802;4.350;2023-05-07T00:47:59;4.80;;;2.45;;
22490;SDS011;11412;50.802;4.350;2023-05-07T00:50:29;4.60;;;2.10;;
22490;SDS011;11412;50.802;4.350;2023-05-07T00:52:55;5.97;;;2.33;;
22490;SDS011;11412;50.802;4.350;2023-05-07T00:55:22;3.72;;;2.20;;
22490;SDS011;11412;50.802;4.350;2023-05-07T00:57:48;5.30;;;2.40;;
22490;SDS011;11412;50.802;4.350;2023-05-07T01:00:15;6.00;;;2.13;;
22490;SDS011;11412;50.802;4.350;2023-05-07T01:02:41;6.93;;;2.58;;
22490;SDS011;11412;50.802;4.350;2023-05-07T01:05:08;6.03;;;2.25;;
22490;SDS011;11412;50.802;4.350;2023-05-07T01:07:37;7.07;;;2.20;;
22490;SDS011;11412;50.802;4.350;2023-05-07T01:10:05;6.03;;;2.40;;
22490;SDS011;11412;50.802;4.350;2023-05-07T01:12:32;6.90;;;2.78;;
22490;SDS011;11412;50.802;4.350;2023-05-07T01:15:00;3.20;;;1.90;;
22490;SDS011;11412;50.802;4.350;2023-05-07T01:17:26;6.32;;;2.35;;
22490;SDS011;11412;50.802;4.350;2023-05-07T01:19:52;7.05;;;2.20;;
22490;SDS011;11412;50.802;4.350;2023-05-07T01:22:34;4.53;;;2.17;;
22490;SDS011;11412;50.802;4.350;2023-05-07T01:25:02;7.32;;;2.35;;
22490;SDS011;11412;50.802;4.350;2023-05-07T01:27:31;4.97;;;2.20;;
22490;SDS011;11412;50.802;4.350;2023-05-07T01:29:58;5.68;;;2.38;;
22490;SDS011;11412;50.802;4.350;2023-05-07T01:32:29;6.60;;;2.40;;
22490;SDS011;11412;50.802;4.350;2023-05-07T01:34:56;6.63;;;2.35;;
22490;SDS011;11412;50.802;4.350;2023-05-07T01:37:23;4.60;;;2.22;;
22490;SDS011;11412;50.802;4.350;2023-05-07T01:39:50;5.50;;;2.45;;
22490;SDS011;11412;50.802;4.350;2023-05-07T01:42:17;5.45;;;2.20;;
22490;SDS011;11412;50.802;4.350;2023-05-07T01:44:43;7.53;;;2.25;;
22490;SDS011;11412;50.802;4.350;2023-05-07T01:47:08;4.60;;;2.65;;
22490;SDS011;11412;50.802;4.350;2023-05-07T01:49:34;4.15;;;2.25;;
22490;SDS011;11412;50.802;4.350;2023-05-07T01:52:01;4.90;;;1.90;;
22490;SDS011;11412;50.802;4.350;2023-05-07T01:54:27;4.00;;;2.03;;
22490;SDS011;11412;50.802;4.350;2023-05-07T01:56:55;6.32;;;2.53;;
22490;SDS011;11412;50.802;4.350;2023-05-07T01:59:21;7.10;;;2.30;;
22490;SDS011;11412;50.802;4.350;2023-05-07T02:01:47;3.10;;;2.10;;
22490;SDS011;11412;50.802;4.350;2023-05-07T02:04:12;4.72;;;2.20;;
22490;SDS011;11412;50.802;4.350;2023-05-07T02:06:38;5.32;;;2.00;;
22490;SDS011;11412;50.802;4.350;2023-05-07T02:09:04;5.43;;;2.22;;
22490;SDS011;11412;50.802;4.350;2023-05-07T02:11:30;3.05;;;2.00;;
22490;SDS011;11412;50.802;4.350;2023-05-07T02:13:56;5.03;;;2.45;;
22490;SDS011;11412;50.802;4.350;2023-05-07T02:16:21;7.47;;;2.38;;
22490;SDS011;11412;50.802;4.350;2023-05-07T02:18:48;4.85;;;2.33;;
22490;SDS011;11412;50.802;4.350;2023-05-07T02:21:14;3.72;;;1.77;;
22490;SDS011;11412;50.802;4.350;2023-05-07T02:23:39;6.75;;;2.42;;
22490;SDS011;11412;50.802;4.350;2023-05-07T02:26:05;5.05;;;2.00;;
22490;SDS011;11412;50.802;4.350;2023-05-07T02:28:31;5.60;;;1.85;;
22490;SDS011;11412;50.802;4.350;2023-05-07T02:30:57;5.90;;;2.25;;
22490;SDS011;11412;50.802;4.350;2023-05-07T02:33:24;5.43;;;2.40;;
22490;SDS011;11412;50.802;4.350;2023-05-07T02:35:50;5.07;;;2.30;;
22490;SDS011;11412;50.802;4.350;2023-05-07T02:38:17;5.63;;;2.25;;
22490;SDS011;11412;50.802;4.350;2023-05-07T02:40:43;4.32;;;2.00;;
22490;SDS011;11412;50.802;4.350;2023-05-07T02:43:09;2.83;;;2.00;;
22490;SDS011;11412;50.802;4.350;2023-05-07T02:45:35;5.50;;;2.53;;
22490;SDS011;11412;50.802;4.350;2023-05-07T02:48:02;4.47;;;2.53;;
22490;SDS011;11412;50.802;4.350;2023-05-07T02:50:28;5.65;;;2.40;;
22490;SDS011;11412;50.802;4.350;2023-05-07T02:52:54;3.50;;;2.08;;
22490;SDS011;11412;50.802;4.350;2023-05-07T02:55:20;7.70;;;2.40;;
22490;SDS011;11412;50.802;4.350;2023-05-07T02:57:46;5.78;;;2.38;;
22490;SDS011;11412;50.802;4.350;2023-05-07T03:00:16;4.00;;;1.90;;
22490;SDS011;11412;50.802;4.350;2023-05-07T03:02:43;3.47;;;2.05;;
22490;SDS011;11412;50.802;4.350;2023-05-07T03:05:10;3.38;;;2.00;;
22490;SDS011;11412;50.802;4.350;2023-05-07T03:07:36;4.28;;;2.30;;
22490;SDS011;11412;50.802;4.350;2023-05-07T03:10:03;4.60;;;2.28;;
22490;SDS011;11412;50.802;4.350;2023-05-07T03:12:30;4.88;;;2.28;;
22490;SDS011;11412;50.802;4.350;2023-05-07T03:14:56;7.38;;;2.40;;
22490;SDS011;11412;50.802;4.350;2023-05-07T03:17:22;3.00;;;2.08;;
22490;SDS011;11412;50.802;4.350;2023-05-07T03:19:47;6.10;;;2.17;;
22490;SDS011;11412;50.802;4.350;2023-05-07T03:22:13;3.55;;;2.00;;
22490;SDS011;11412;50.802;4.350;2023-05-07T03:24:39;6.68;;;2.10;;
22490;SDS011;11412;50.802;4.350;2023-05-07T03:27:05;6.78;;;2.65;;
22490;SDS011;11412;50.802;4.350;2023-05-07T03:29:31;4.18;;;1.98;;
22490;SDS011;11412;50.802;4.350;2023-05-07T03:31:56;3.13;;;1.88;;
22490;SDS011;11412;50.802;4.350;2023-05-07T03:34:22;3.15;;;2.08;;
22490;SDS011;11412;50.802;4.350;2023-05-07T03:36:49;5.57;;;2.15;;
22490;SDS011;11412;50.802;4.350;2023-05-07T03:39:14;3.78;;;2.28;;
22490;SDS011;11412;50.802;4.350;2023-05-07T03:41:40;4.00;;;2.20;;
22490;SDS011;11412;50.802;4.350;2023-05-07T03:44:06;4.30;;;2.20;;
22490;SDS011;11412;50.802;4.350;2023-05-07T03:46:33;5.00;;;2.20;;
22490;SDS011;11412;50.802;4.350;2023-05-07T03:48:59;4.10;;;2.00;;
22490;SDS011;11412;50.802;4.350;2023-05-07T03:51:24;5.10;;;2.20;;
22490;SDS011;11412;50.802;4.350;2023-05-07T03:53:51;4.07;;;2.28;;
22490;SDS011;11412;50.802;4.350;2023-05-07T03:56:18;8.00;;;2.20;;
22490;SDS011;11412;50.802;4.350;2023-05-07T03:58:44;2.70;;;2.00;;
22490;SDS011;11412;50.802;4.350;2023-05-07T04:01:10;5.82;;;2.03;;
22490;SDS011;11412;50.802;4.350;2023-05-07T04:03:37;2.75;;;2.17;;
22490;SDS011;11412;50.802;4.350;2023-05-07T04:06:02;4.90;;;2.10;;
22490;SDS011;11412;50.802;4.350;2023-05-07T04:08:28;3.22;;;2.03;;
22490;SDS011;11412;50.802;4.350;2023-05-07T04:10:55;3.97;;;1.77;;
22490;SDS011;11412;50.802;4.350;2023-05-07T04:13:21;3.65;;;2.22;;
22490;SDS011;11412;50.802;4.350;2023-05-07T04:15:46;4.47;;;2.08;;
22490;SDS011;11412;50.802;4.350;2023-05-07T04:18:14;3.13;;;1.90;;
22490;SDS011;11412;50.802;4.350;2023-05-07T04:20:40;3.80;;;1.65;;
22490;SDS011;11412;50.802;4.350;2023-05-07T04:23:06;4.75;;;2.20;;
22490;SDS011;11412;50.802;4.350;2023-05-07T04:25:32;3.97;;;2.00;;
22490;SDS011;11412;50.802;4.350;2023-05-07T04:27:58;5.38;;;2.00;;
22490;SDS011;11412;50.802;4.350;2023-05-07T04:30:24;4.30;;;1.95;;
22490;SDS011;11412;50.802;4.350;2023-05-07T04:32:50;4.30;;;2.20;;
22490;SDS011;11412;50.802;4.350;2023-05-07T04:35:16;4.97;;;2.38;;
22490;SDS011;11412;50.802;4.350;2023-05-07T04:37:42;6.35;;;2.33;;
22490;SDS011;11412;50.802;4.350;2023-05-07T04:40:08;4.78;;;2.30;;
22490;SDS011;11412;50.802;4.350;2023-05-07T04:42:35;3.85;;;2.15;;
22490;SDS011;11412;50.802;4.350;2023-05-07T04:45:01;4.03;;;2.20;;
22490;SDS011;11412;50.802;4.350;2023-05-07T04:47:27;4.07;;;2.22;;
22490;SDS011;11412;50.802;4.350;2023-05-07T04:49:53;3.88;;;2.13;;
22490;SDS011;11412;50.802;4.350;2023-05-07T04:52:18;8.90;;;2.42;;
22490;SDS011;11412;50.802;4.350;2023-05-07T04:54:44;4.15;;;2.00;;
22490;SDS011;11412;50.802;4.350;2023-05-07T04:57:10;4.10;;;2.42;;
22490;SDS011;11412;50.802;4.350;2023-05-07T04:59:35;3.25;;;1.90;;
22490;SDS011;11412;50.802;4.350;2023-05-07T05:02:01;3.28;;;1.67;;
22490;SDS011;11412;50.802;4.350;2023-05-07T05:04:29;3.47;;;1.80;;
22490;SDS011;11412;50.802;4.350;2023-05-07T05:06:55;4.50;;;1.80;;
22490;SDS011;11412;50.802;4.350;2023-05-07T05:09:21;5.65;;;2.25;;
22490;SDS011;11412;50.802;4.350;2023-05-07T05:11:46;4.97;;;2.17;;
22490;SDS011;11412;50.802;4.350;2023-05-07T05:14:12;8.20;;;2.92;;
22490;SDS011;11412;50.802;4.350;2023-05-07T05:16:40;5.55;;;2.50;;
22490;SDS011;11412;50.802;4.350;2023-05-07T05:19:06;3.58;;;2.00;;
22490;SDS011;11412;50.802;4.350;2023-05-07T05:21:32;3.83;;;2.20;;
22490;SDS011;11412;50.802;4.350;2023-05-07T05:23:58;5.00;;;2.47;;
22490;SDS011;11412;50.802;4.350;2023-05-07T05:26:24;3.92;;;1.98;;
22490;SDS011;11412;50.802;4.350;2023-05-07T05:28:49;4.53;;;2.00;;
22490;SDS011;11412;50.802;4.350;2023-05-07T05:31:16;4.93;;;2.40;;
22490;SDS011;11412;50.802;4.350;2023-05-07T05:33:41;7.82;;;2.92;;
22490;SDS011;11412;50.802;4.350;2023-05-07T05:36:10;3.20;;;1.98;;
22490;SDS011;11412;50.802;4.350;2023-05-07T05:38:38;4.13;;;2.33;;
22490;SDS011;11412;50.802;4.350;2023-05-07T05:41:04;5.53;;;2.10;;
22490;SDS011;11412;50.802;4.350;2023-05-07T05:43:30;4.82;;;2.00;;
22490;SDS011;11412;50.802;4.350;2023-05-07T05:45:56;3.50;;;2.15;;
22490;SDS011;11412;50.802;4.350;2023-05-07T05:48:23;3.97;;;1.90;;
22490;SDS011;11412;50.802;4.350;2023-05-07T05:50:49;4.50;;;2.13;;
22490;SDS011;11412;50.802;4.350;2023-05-07T05:53:15;5.80;;;2.08;;
22490;SDS011;11412;50.802;4.350;2023-05-07T05:55:41;5.88;;;2.60;;
22490;SDS011;11412;50.802;4.350;2023-05-07T05:58:07;7.28;;;3.00;;
22490;SDS011;11412;50.802;4.350;2023-05-07T06:00:33;5.85;;;3.25;;
22490;SDS011;11412;50.802;4.350;2023-05-07T06:02:59;10.02;;;3.80;;
22490;SDS011;11412;50.802;4.350;2023-05-07T06:05:25;9.35;;;3.78;;
22490;SDS011;11412;50.802;4.350;2023-05-07T06:07:51;9.98;;;3.95;;
22490;SDS011;11412;50.802;4.350;2023-05-07T06:10:16;7.65;;;4.03;;
22490;SDS011;11412;50.802;4.350;2023-05-07T06:12:42;8.82;;;4.50;;
22490;SDS011;11412;50.802;4.350;2023-05-07T06:15:08;6.90;;;4.25;;
22490;SDS011;11412;50.802;4.350;2023-05-07T06:17:34;8.35;;;4.03;;
22490;SDS011;11412;50.802;4.350;2023-05-07T06:20:00;8.57;;;4.50;;
22490;SDS011;11412;50.802;4.350;2023-05-07T06:22:26;8.63;;;4.15;;
22490;SDS011;11412;50.802;4.350;2023-05-07T06:24:52;9.05;;;4.57;;
22490;SDS011;11412;50.802;4.350;2023-05-07T06:27:18;8.88;;;4.50;;
22490;SDS011;11412;50.802;4.350;2023-05-07T06:29:43;9.10;;;4.43;;
22490;SDS011;11412;50.802;4.350;2023-05-07T06:32:09;9.88;;;4.80;;
22490;SDS011;11412;50.802;4.350;2023-05-07T06:34:36;9.35;;;4.78;;
22490;SDS011;11412;50.802;4.350;2023-05-07T06:37:02;8.77;;;4.70;;
22490;SDS011;11412;50.802;4.350;2023-05-07T06:39:28;7.25;;;4.35;;
22490;SDS011;11412;50.802;4.350;2023-05-07T06:41:54;9.68;;;4.43;;
22490;SDS011;11412;50.802;4.350;2023-05-07T06:44:19;8.20;;;4.40;;
22490;SDS011;11412;50.802;4.350;2023-05-07T06:46:45;10.07;;;5.30;;
22490;SDS011;11412;50.802;4.350;2023-05-07T06:49:14;9.20;;;4.85;;
22490;SDS011;11412;50.802;4.350;2023-05-07T06:51:40;8.35;;;4.60;;
22490;SDS011;11412;50.802;4.350;2023-05-07T06:54:06;7.35;;;4.30;;
22490;SDS011;11412;50.802;4.350;2023-05-07T06:56:32;5.72;;;4.35;;
22490;SDS011;11412;50.802;4.350;2023-05-07T06:59:02;4.93;;;3.92;;
22490;SDS011;11412;50.802;4.350;2023-05-07T07:01:28;10.55;;;4.30;;
22490;SDS011;11412;50.802;4.350;2023-05-07T07:03:53;7.63;;;4.47;;
22490;SDS011;11412;50.802;4.350;2023-05-07T07:06:19;7.25;;;4.93;;
22490;SDS011;11412;50.802;4.350;2023-05-07T07:08:45;9.07;;;4.35;;
22490;SDS011;11412;50.802;4.350;2023-05-07T07:11:11;7.32;;;4.40;;
22490;SDS011;11412;50.802;4.350;2023-05-07T07:13:36;8.27;;;4.47;;
22490;SDS011;11412;50.802;4.350;2023-05-07T07:16:02;7.55;;;4.68;;
22490;SDS011;11412;50.802;4.350;2023-05-07T07:18:28;5.53;;;3.92;;
22490;SDS011;11412;50.802;4.350;2023-05-07T07:20:54;8.65;;;5.05;;
22490;SDS011;11412;50.802;4.350;2023-05-07T07:23:20;8.15;;;4.38;;
22490;SDS011;11412;50.802;4.350;2023-05-07T07:25:45;9.57;;;4.68;;
22490;SDS011;11412;50.802;4.350;2023-05-07T07:28:11;9.88;;;4.03;;
22490;SDS011;11412;50.802;4.350;2023-05-07T07:30:38;9.07;;;4.93;;
22490;SDS011;11412;50.802;4.350;2023-05-07T07:33:04;7.35;;;4.63;;
22490;SDS011;11412;50.802;4.350;2023-05-07T07:35:30;5.85;;;4.47;;
22490;SDS011;11412;50.802;4.350;2023-05-07T07:37:59;10.77;;;4.80;;
22490;SDS011;11412;50.802;4.350;2023-05-07T07:40:25;8.13;;;4.97;;
22490;SDS011;11412;50.802;4.350;2023-05-07T07:42:51;5.15;;;4.15;;
22490;SDS011;11412;50.802;4.350;2023-05-07T07:45:17;7.43;;;4.38;;
22490;SDS011;11412;50.802;4.350;2023-05-07T07:47:43;7.38;;;4.50;;
22490;SDS011;11412;50.802;4.350;2023-05-07T07:50:09;6.47;;;4.00;;
22490;SDS011;11412;50.802;4.350;2023-05-07T07:52:35;7.32;;;4.70;;
22490;SDS011;11412;50.802;4.350;2023-05-07T07:55:01;4.97;;;4.47;;
22490;SDS011;11412;50.802;4.350;2023-05-07T07:57:27;9.35;;;4.40;;
22490;SDS011;11412;50.802;4.350;2023-05-07T07:59:52;4.78;;;3.97;;
22490;SDS011;11412;50.802;4.350;2023-05-07T08:02:18;6.82;;;4.07;;
22490;SDS011;11412;50.802;4.350;2023-05-07T08:04:43;8.27;;;4.38;;
22490;SDS011;11412;50.802;4.350;2023-05-07T08:07:10;5.57;;;4.18;;
22490;SDS011;11412;50.802;4.350;2023-05-07T08:09:39;13.23;;;6.45;;
22490;SDS011;11412;50.802;4.350;2023-05-07T08:12:05;4.82;;;4.28;;
22490;SDS011;11412;50.802;4.350;2023-05-07T08:14:31;6.55;;;4.25;;
22490;SDS011;11412;50.802;4.350;2023-05-07T08:16:57;5.68;;;4.65;;
22490;SDS011;11412;50.802;4.350;2023-05-07T08:19:23;8.32;;;5.72;;
22490;SDS011;11412;50.802;4.350;2023-05-07T08:21:49;6.68;;;4.45;;
22490;SDS011;11412;50.802;4.350;2023-05-07T08:24:15;5.53;;;3.92;;
22490;SDS011;11412;50.802;4.350;2023-05-07T08:26:42;6.28;;;4.00;;
22490;SDS011;11412;50.802;4.350;2023-05-07T08:29:08;6.85;;;4.53;;
22490;SDS011;11412;50.802;4.350;2023-05-07T08:31:34;8.35;;;3.97;;
22490;SDS011;11412;50.802;4.350;2023-05-07T08:34:00;8.43;;;4.30;;
22490;SDS011;11412;50.802;4.350;2023-05-07T08:36:26;6.40;;;3.75;;
22490;SDS011;11412;50.802;4.350;2023-05-07T08:38:52;6.93;;;3.92;;
22490;SDS011;11412;50.802;4.350;2023-05-07T08:41:18;6.55;;;3.95;;
22490;SDS011;11412;50.802;4.350;2023-05-07T08:43:47;6.75;;;4.13;;
22490;SDS011;11412;50.802;4.350;2023-05-07T08:46:18;7.13;;;4.00;;
22490;SDS011;11412;50.802;4.350;2023-05-07T08:48:47;6.00;;;3.65;;
22490;SDS011;11412;50.802;4.350;2023-05-07T08:51:16;3.40;;;3.00;;
22490;SDS011;11412;50.802;4.350;2023-05-07T08:53:46;6.22;;;4.00;;
22490;SDS011;11412;50.802;4.350;2023-05-07T08:56:13;4.38;;;3.72;;
22490;SDS011;11412;50.802;4.350;2023-05-07T08:58:41;5.10;;;3.78;;
22490;SDS011;11412;50.802;4.350;2023-05-07T09:01:11;3.80;;;3.53;;
22490;SDS011;11412;50.802;4.350;2023-05-07T09:03:38;6.38;;;3.38;;
22490;SDS011;11412;50.802;4.350;2023-05-07T09:06:05;3.65;;;3.30;;
22490;SDS011;11412;50.802;4.350;2023-05-07T09:08:32;7.25;;;4.10;;
22490;SDS011;11412;50.802;4.350;2023-05-07T09:10:58;5.78;;;3.13;;
22490;SDS011;11412;50.802;4.350;2023-05-07T09:13:25;3.15;;;2.92;;
22490;SDS011;11412;50.802;4.350;2023-05-07T09:15:52;6.55;;;3.33;;
22490;SDS011;11412;50.802;4.350;2023-05-07T09:18:18;8.38;;;3.22;;
22490;SDS011;11412;50.802;4.350;2023-05-07T09:20:44;3.63;;;3.33;;
22490;SDS011;11412;50.802;4.350;2023-05-07T09:23:09;5.50;;;3.92;;
22490;SDS011;11412;50.802;4.350;2023-05-07T09:25:36;5.15;;;3.20;;
22490;SDS011;11412;50.802;4.350;2023-05-07T09:28:03;4.68;;;3.78;;
22490;SDS011;11412;50.802;4.350;2023-05-07T09:30:31;5.28;;;3.65;;
22490;SDS011;11412;50.802;4.350;2023-05-07T09:32:58;6.00;;;3.72;;
22490;SDS011;11412;50.802;4.350;2023-05-07T09:35:25;5.07;;;2.60;;
22490;SDS011;11412;50.802;4.350;2023-05-07T09:37:58;3.45;;;2.65;;
22490;SDS011;11412;50.802;4.350;2023-05-07T09:40:27;4.40;;;2.50;;
22490;SDS011;11412;50.802;4.350;2023-05-07T09:42:54;4.90;;;2.65;;
22490;SDS011;11412;50.802;4.350;2023-05-07T09:45:26;4.53;;;2.42;;
22490;SDS011;11412;50.802;4.350;2023-05-07T09:47:56;4.20;;;2.92;;
22490;SDS011;11412;50.802;4.350;2023-05-07T09:50:27;4.47;;;3.08;;
22490;SDS011;11412;50.802;4.350;2023-05-07T09:52:55;3.78;;;2.70;;
22490;SDS011;11412;50.802;4.350;2023-05-07T09:55:22;4.88;;;3.22;;
22490;SDS011;11412;50.802;4.350;2023-05-07T09:57:50;4.93;;;3.58;;
22490;SDS011;11412;50.802;4.350;2023-05-07T10:00:20;3.67;;;3.05;;
22490;SDS011;11412;50.802;4.350;2023-05-07T10:02:48;4.32;;;2.92;;
22490;SDS011;11412;50.802;4.350;2023-05-07T10:05:17;4.78;;;3.38;;
22490;SDS011;11412;50.802;4.350;2023-05-07T10:07:43;5.75;;;3.35;;
22490;SDS011;11412;50.802;4.350;2023-05-07T10:10:10;5.28;;;3.40;;
22490;SDS011;11412;50.802;4.350;2023-05-07T10:12:36;3.90;;;3.00;;
22490;SDS011;11412;50.802;4.350;2023-05-07T10:15:10;3.63;;;3.30;;
22490;SDS011;11412;50.802;4.350;2023-05-07T10:17:40;3.88;;;2.50;;
22490;SDS011;11412;50.802;4.350;2023-05-07T10:20:06;6.35;;;3.13;;
22490;SDS011;11412;50.802;4.350;2023-05-07T10:22:43;4.15;;;3.28;;
22490;SDS011;11412;50.802;4.350;2023-05-07T10:25:18;3.33;;;2.90;;
22490;SDS011;11412;50.802;4.350;2023-05-07T10:27:46;3.47;;;2.42;;
22490;SDS011;11412;50.802;4.350;2023-05-07T10:33:01;2.90;;;2.28;;
22490;SDS011;11412;50.802;4.350;2023-05-07T10:35:32;2.50;;;2.30;;
22490;SDS011;11412;50.802;4.350;2023-05-07T10:38:04;4.65;;;2.55;;
22490;SDS011;11412;50.802;4.350;2023-05-07T10:40:30;3.80;;;2.10;;
22490;SDS011;11412;50.802;4.350;2023-05-07T10:42:57;3.95;;;2.85;;
22490;SDS011;11412;50.802;4.350;2023-05-07T10:45:28;4.47;;;2.55;;
22490;SDS011;11412;50.802;4.350;2023-05-07T10:48:13;4.30;;;2.47;;
22490;SDS011;11412;50.802;4.350;2023-05-07T10:50:41;5.40;;;2.00;;
22490;SDS011;11412;50.802;4.350;2023-05-07T10:55:49;3.60;;;2.22;;
22490;SDS011;11412;50.802;4.350;2023-05-07T10:58:26;2.75;;;1.90;;
22490;SDS011;11412;50.802;4.350;2023-05-07T11:00:59;2.53;;;1.70;;
22490;SDS011;11412;50.802;4.350;2023-05-07T11:03:26;2.00;;;1.83;;
22490;SDS011;11412;50.802;4.350;2023-05-07T11:06:14;2.63;;;1.80;;
22490;SDS011;11412;50.802;4.350;2023-05-07T11:11:18;3.03;;;2.20;;
22490;SDS011;11412;50.802;4.350;2023-05-07T11:13:47;3.20;;;2.47;;
22490;SDS011;11412;50.802;4.350;2023-05-07T11:16:18;3.05;;;2.38;;
22490;SDS011;11412;50.802;4.350;2023-05-07T11:18:49;3.65;;;3.22;;
22490;SDS011;11412;50.802;4.350;2023-05-07T11:21:35;3.40;;;3.03;;
22490;SDS011;11412;50.802;4.350;2023-05-07T11:24:01;4.32;;;2.70;;
22490;SDS011;11412;50.802;4.350;2023-05-07T11:26:40;3.10;;;2.50;;
22490;SDS011;11412;50.802;4.350;2023-05-07T11:29:11;3.40;;;2.00;;
22490;SDS011;11412;50.802;4.350;2023-05-07T11:31:47;2.80;;;1.97;;
22490;SDS011;11412;50.802;4.350;2023-05-07T11:34:20;2.90;;;1.85;;
22490;SDS011;11412;50.802;4.350;2023-05-07T11:36:50;2.35;;;2.10;;
22490;SDS011;11412;50.802;4.350;2023-05-07T11:39:23;2.65;;;2.10;;
22490;SDS011;11412;50.802;4.350;2023-05-07T11:41:50;3.20;;;2.40;;
22490;SDS011;11412;50.802;4.350;2023-05-07T11:44:15;2.17;;;1.98;;
22490;SDS011;11412;50.802;4.350;2023-05-07T11:46:44;5.00;;;2.63;;
22490;SDS011;11412;50.802;4.350;2023-05-07T11:49:10;2.30;;;1.80;;
22490;SDS011;11412;50.802;4.350;2023-05-07T11:51:36;2.25;;;2.15;;
22490;SDS011;11412;50.802;4.350;2023-05-07T11:54:03;5.03;;;2.50;;
22490;SDS011;11412;50.802;4.350;2023-05-07T11:56:34;3.83;;;3.20;;
22490;SDS011;11412;50.802;4.350;2023-05-07T11:59:02;3.60;;;3.15;;
22490;SDS011;11412;50.802;4.350;2023-05-07T12:01:28;2.30;;;2.10;;
22490;SDS011;11412;50.802;4.350;2023-05-07T12:03:53;2.88;;;2.60;;
22490;SDS011;11412;50.802;4.350;2023-05-07T12:06:19;2.50;;;2.28;;
22490;SDS011;11412;50.802;4.350;2023-05-07T12:08:45;6.38;;;2.78;;
22490;SDS011;11412;50.802;4.350;2023-05-07T12:11:15;2.60;;;2.40;;
22490;SDS011;11412;50.802;4.350;2023-05-07T12:13:46;4.60;;;3.80;;
22490;SDS011;11412;50.802;4.350;2023-05-07T12:16:12;21.23;;;14.43;;
22490;SDS011;11412;50.802;4.350;2023-05-07T12:18:38;9.95;;;7.35;;
22490;SDS011;11412;50.802;4.350;2023-05-07T12:21:05;6.78;;;3.78;;
22490;SDS011;11412;50.802;4.350;2023-05-07T12:23:31;4.20;;;3.40;;
22490;SDS011;11412;50.802;4.350;2023-05-07T12:25:59;4.80;;;3.10;;
22490;SDS011;11412;50.802;4.350;2023-05-07T12:28:25;4.72;;;3.40;;
22490;SDS011;11412;50.802;4.350;2023-05-07T12:30:50;4.10;;;3.80;;
22490;SDS011;11412;50.802;4.350;2023-05-07T12:33:17;3.70;;;3.40;;
22490;SDS011;11412;50.802;4.350;2023-05-07T12:35:47;5.72;;;5.00;;
22490;SDS011;11412;50.802;4.350;2023-05-07T12:38:13;4.88;;;4.47;;
22490;SDS011;11412;50.802;4.350;2023-05-07T12:40:42;4.88;;;4.35;;
22490;SDS011;11412;50.802;4.350;2023-05-07T12:45:54;5.38;;;4.65;;
22490;SDS011;11412;50.802;4.350;2023-05-07T12:48:30;6.30;;;5.70;;
22490;SDS011;11412;50.802;4.350;2023-05-07T12:50:56;6.82;;;6.22;;
22490;SDS011;11412;50.802;4.350;2023-05-07T12:53:25;7.15;;;6.55;;
22490;SDS011;11412;50.802;4.350;2023-05-07T12:55:53;8.68;;;7.07;;
22490;SDS011;11412;50.802;4.350;2023-05-07T13:00:53;9.10;;;6.45;;
22490;SDS011;11412;50.802;4.350;2023-05-07T13:03:23;8.93;;;6.80;;
22490;SDS011;11412;50.802;4.350;2023-05-07T13:05:50;7.20;;;6.60;;
22490;SDS011;11412;50.802;4.350;2023-05-07T13:08:24;7.20;;;6.50;;
22490;SDS011;11412;50.802;4.350;2023-05-07T13:10:54;7.63;;;6.95;;
22490;SDS011;11412;50.802;4.350;2023-05-07T13:13:21;8.48;;;7.00;;
22490;SDS011;11412;50.802;4.350;2023-05-07T13:15:47;6.93;;;6.32;;
22490;SDS011;11412;50.802;4.350;2023-05-07T13:18:13;7.80;;;7.00;;
22490;SDS011;11412;50.802;4.350;2023-05-07T13:20:39;8.27;;;7.57;;
22490;SDS011;11412;50.802;4.350;2023-05-07T13:23:04;12.98;;;9.40;;
22490;SDS011;11412;50.802;4.350;2023-05-07T13:25:30;9.73;;;8.82;;
22490;SDS011;11412;50.802;4.350;2023-05-07T13:27:59;8.88;;;8.07;;
22490;SDS011;11412;50.802;4.350;2023-05-07T13:30:25;8.60;;;7.70;;
22490;SDS011;11412;50.802;4.350;2023-05-07T13:32:51;8.77;;;7.80;;
22490;SDS011;11412;50.802;4.350;2023-05-07T13:35:18;9.77;;;8.88;;
22490;SDS011;11412;50.802;4.350;2023-05-07T13:37:44;8.27;;;7.47;;
22490;SDS011;11412;50.802;4.350;2023-05-07T13:40:10;8.50;;;7.72;;
22490;SDS011;11412;50.802;4.350;2023-05-07T13:42:36;8.90;;;7.82;;
22490;SDS011;11412;50.802;4.350;2023-05-07T13:45:02;8.48;;;7.72;;
22490;SDS011;11412;50.802;4.350;2023-05-07T13:47:30;8.30;;;7.60;;
22490;SDS011;11412;50.802;4.350;2023-05-07T13:49:56;8.27;;;7.63;;
22490;SDS011;11412;50.802;4.350;2023-05-07T13:52:22;8.52;;;7.80;;
22490;SDS011;11412;50.802;4.350;2023-05-07T13:54:47;8.15;;;7.43;;
22490;SDS011;11412;50.802;4.350;2023-05-07T13:57:13;7.93;;;7.18;;
22490;SDS011;11412;50.802;4.350;2023-05-07T13:59:40;8.25;;;7.53;;
22490;SDS011;11412;50.802;4.350;2023-05-07T14:02:06;8.25;;;7.45;;
22490;SDS011;11412;50.802;4.350;2023-05-07T14:04:31;9.27;;;8.35;;
22490;SDS011;11412;50.802;4.350;2023-05-07T14:06:57;8.07;;;7.38;;
22490;SDS011;11412;50.802;4.350;2023-05-07T14:09:23;8.25;;;7.45;;
22490;SDS011;11412;50.802;4.350;2023-05-07T14:11:51;8.50;;;7.47;;
22490;SDS011;11412;50.802;4.350;2023-05-07T14:14:17;8.57;;;7.72;;
22490;SDS011;11412;50.802;4.350;2023-05-07T14:16:43;8.18;;;7.38;;
22490;SDS011;11412;50.802;4.350;2023-05-07T14:19:10;8.98;;;8.07;;
22490;SDS011;11412;50.802;4.350;2023-05-07T14:21:37;7.50;;;6.63;;
22490;SDS011;11412;50.802;4.350;2023-05-07T14:24:02;7.60;;;6.80;;
22490;SDS011;11412;50.802;4.350;2023-05-07T14:26:29;7.68;;;6.97;;
22490;SDS011;11412;50.802;4.350;2023-05-07T14:28:55;7.78;;;6.97;;
22490;SDS011;11412;50.802;4.350;2023-05-07T14:31:23;8.70;;;7.55;;
22490;SDS011;11412;50.802;4.350;2023-05-07T14:33:49;8.65;;;7.85;;
22490;SDS011;11412;50.802;4.350;2023-05-07T14:36:16;8.10;;;7.32;;
22490;SDS011;11412;50.802;4.350;2023-05-07T14:38:42;8.65;;;7.85;;
22490;SDS011;11412;50.802;4.350;2023-05-07T14:41:08;8.00;;;7.20;;
22490;SDS011;11412;50.802;4.350;2023-05-07T14:43:34;8.52;;;7.60;;
22490;SDS011;11412;50.802;4.350;2023-05-07T14:46:00;7.20;;;6.60;;
22490;SDS011;11412;50.802;4.350;2023-05-07T14:48:25;9.07;;;8.15;;
22490;SDS011;11412;50.802;4.350;2023-05-07T14:50:51;7.78;;;7.07;;
22490;SDS011;11412;50.802;4.350;2023-05-07T14:53:16;7.95;;;7.30;;
22490;SDS011;11412;50.802;4.350;2023-05-07T14:55:42;8.18;;;6.60;;
22490;SDS011;11412;50.802;4.350;2023-05-07T14:58:08;8.00;;;7.20;;
22490;SDS011;11412;50.802;4.350;2023-05-07T15:00:34;7.10;;;6.40;;